Time;durP1;ratioP1;P1;durP2;ratioP2;P2;SDS_P1;SDS_P2;PMS_P1;PMS_P2;Temp;Humidity;BMP_temperature;BMP_pressure;BME280_temperature;BME280_humidity;BME280_pressure;Samples;Min_cycle;Max_cycle;Signal;HPM_P1;HPM_P2
2023/01/08 00:01:49;;;;;;;42.75;30.80;;;13.80;90.20;;;;;;6309769;22;20006;-82
2023/01/08 00:04:16;;;;;;;43.90;31.55;;;13.80;90.30;;;;;;6309915;22;19995;-82
2023/01/08 00:06:43;;;;;;;43.20;31.40;;;13.80;90.30;;;;;;6282196;22;20053;-83
2023/01/08 00:09:09;;;;;;;42.75;31.58;;;13.80;90.30;;;;;;6308058;22;20007;-82
2023/01/08 00:11:35;;;;;;;38.85;32.15;;;13.80;90.30;;;;;;6309743;22;19999;-83
2023/01/08 00:14:01;;;;;;;39.00;30.20;;;13.80;90.40;;;;;;6309033;22;20048;-82
2023/01/08 00:16:29;;;;;;;41.67;31.85;;;13.80;90.40;;;;;;6308403;22;20003;-82
2023/01/08 00:18:54;;;;;;;47.25;32.80;;;13.80;90.40;;;;;;6308570;22;20003;-81
2023/01/08 00:21:20;;;;;;;42.90;33.15;;;13.80;90.50;;;;;;6281564;22;20018;-84
2023/01/08 00:23:46;;;;;;;45.33;33.20;;;13.70;90.40;;;;;;6281414;22;20010;-83
2023/01/08 00:26:12;;;;;;;48.85;34.47;;;13.70;90.70;;;;;;6308299;22;20011;-84
2023/01/08 00:28:39;;;;;;;43.70;34.05;;;13.70;90.50;;;;;;6282054;22;20003;-81
2023/01/08 00:31:07;;;;;;;43.13;32.55;;;13.70;90.50;;;;;;6281390;22;20011;-84
2023/01/08 00:33:33;;;;;;;45.42;34.10;;;13.70;90.50;;;;;;6281408;22;20003;-83
2023/01/08 00:35:59;;;;;;;46.45;34.05;;;13.70;90.50;;;;;;6309097;22;20000;-82
2023/01/08 00:38:28;;;;;;;45.22;33.85;;;13.70;90.60;;;;;;6281998;22;20003;-82
2023/01/08 00:40:54;;;;;;;44.75;33.97;;;13.60;90.50;;;;;;6281292;22;20052;-83
2023/01/08 00:43:20;;;;;;;46.83;34.40;;;13.70;90.60;;;;;;6308505;22;19999;-84
2023/01/08 00:45:46;;;;;;;44.88;35.33;;;13.60;90.60;;;;;;6308105;22;20131;-82
2023/01/08 00:48:12;;;;;;;45.08;36.28;;;13.60;90.60;;;;;;6308585;22;20380;-82
2023/01/08 00:50:37;;;;;;;46.90;34.80;;;13.60;90.70;;;;;;6281433;22;20442;-83
2023/01/08 00:53:03;;;;;;;44.20;34.05;;;13.50;90.70;;;;;;6280867;22;20105;-83
2023/01/08 00:55:30;;;;;;;47.88;35.50;;;13.50;90.60;;;;;;6280900;22;20003;-81
2023/01/08 00:57:57;;;;;;;49.38;37.67;;;13.50;90.70;;;;;;6308086;22;20003;-82
2023/01/08 01:00:23;;;;;;;48.03;37.05;;;13.40;90.70;;;;;;6308447;22;19995;-83
2023/01/08 01:02:49;;;;;;;57.88;42.97;;;13.40;90.80;;;;;;6307802;22;20000;-81
2023/01/08 01:05:16;;;;;;;63.05;43.05;;;13.30;90.80;;;;;;6280791;22;19999;-80
2023/01/08 01:07:43;;;;;;;57.33;43.13;;;13.20;90.90;;;;;;6305420;22;20011;-82
2023/01/08 01:10:12;;;;;;;63.63;44.03;;;13.20;91.00;;;;;;6281598;22;20031;-83
2023/01/08 01:12:38;;;;;;;54.47;44.30;;;13.10;91.00;;;;;;6308323;22;19999;-82
2023/01/08 01:15:09;;;;;;;53.35;43.40;;;13.00;91.10;;;;;;6308646;22;20362;-82
2023/01/08 01:17:38;;;;;;;53.08;42.72;;;13.00;91.10;;;;;;6280612;22;20003;-82
2023/01/08 01:20:05;;;;;;;56.95;42.92;;;13.00;91.20;;;;;;6308911;22;20395;-81
2023/01/08 01:22:31;;;;;;;54.08;42.47;;;13.00;91.20;;;;;;6308151;22;20003;-81
2023/01/08 01:24:57;;;;;;;58.38;42.85;;;13.00;91.30;;;;;;6308754;22;20003;-81
2023/01/08 01:27:24;;;;;;;57.75;43.03;;;13.00;91.30;;;;;;6308340;22;20335;-82
2023/01/08 01:29:49;;;;;;;55.45;41.25;;;13.00;91.40;;;;;;6280301;22;20283;-82
2023/01/08 01:32:15;;;;;;;53.67;42.20;;;13.00;91.40;;;;;;6308631;22;20038;-81
2023/01/08 01:34:41;;;;;;;57.58;41.55;;;12.90;91.30;;;;;;6281229;22;20003;-82
2023/01/08 01:37:07;;;;;;;55.35;41.58;;;12.90;91.50;;;;;;6308431;22;20026;-83
2023/01/08 01:39:33;;;;;;;50.92;40.40;;;12.90;91.50;;;;;;6280878;22;20033;-81
2023/01/08 01:41:59;;;;;;;55.03;40.95;;;12.90;91.50;;;;;;6308158;22;20007;-81
2023/01/08 01:44:43;;;;;;;54.28;41.83;;;12.90;91.50;;;;;;6280489;22;20041;-83
2023/01/08 01:47:21;;;;;;;53.90;40.75;;;12.90;91.50;;;;;;6280301;22;20043;-81
2023/01/08 01:50:09;;;;;;;51.08;41.00;;;12.90;91.50;;;;;;6307658;22;20429;-82
2023/01/08 01:52:46;;;;;;;55.00;41.42;;;12.90;91.50;;;;;;6307519;22;20007;-81
2023/01/08 01:55:13;;;;;;;56.10;41.78;;;12.80;91.60;;;;;;6307734;22;20451;-82
2023/01/08 01:57:40;;;;;;;53.15;41.38;;;12.80;91.60;;;;;;6307574;22;20063;-82
2023/01/08 02:00:08;;;;;;;53.10;42.05;;;12.80;91.60;;;;;;6280249;22;20011;-82
2023/01/08 02:02:34;;;;;;;55.55;41.60;;;12.80;91.60;;;;;;6307634;22;20002;-81
2023/01/08 02:05:01;;;;;;;58.53;43.15;;;12.70;91.60;;;;;;6307417;22;20309;-81
2023/01/08 02:07:40;;;;;;;53.00;41.55;;;12.70;91.60;;;;;;6279601;22;20015;-81
2023/01/08 02:10:27;;;;;;;54.53;41.17;;;12.70;91.70;;;;;;6280038;22;20056;-81
2023/01/08 02:13:00;;;;;;;53.38;40.25;;;12.70;91.70;;;;;;6307399;22;20011;-81
2023/01/08 02:15:41;;;;;;;50.42;40.63;;;12.70;91.70;;;;;;6280124;22;20351;-81
2023/01/08 02:18:14;;;;;;;52.35;42.20;;;12.60;91.70;;;;;;6281720;22;20015;-82
2023/01/08 02:20:48;;;;;;;54.45;41.80;;;12.60;91.80;;;;;;6307683;22;19995;-79
2023/01/08 02:23:26;;;;;;;;;;;12.60;91.70;;;;;;6280129;22;20007;-81
2023/01/08 02:26:13;;;;;;;55.78;41.60;;;12.60;91.80;;;;;;6307670;22;20227;-81
2023/01/08 02:28:51;;;;;;;55.88;41.47;;;12.60;91.70;;;;;;6307303;22;20007;-81
2023/01/08 02:31:18;;;;;;;52.50;41.45;;;12.60;91.70;;;;;;6280330;22;20332;-81
2023/01/08 02:33:44;;;;;;;51.95;41.25;;;12.60;91.80;;;;;;6308340;22;20006;-82
2023/01/08 02:36:42;;;;;;;57.65;41.85;;;12.60;91.80;;;;;;6279944;22;20007;-81
2023/01/08 02:39:46;;;;;;;56.25;42.05;;;12.50;91.90;;;;;;6280357;22;20003;-82
2023/01/08 02:42:35;;;;;;;50.63;40.20;;;12.50;91.90;;;;;;6308837;22;20328;-81
2023/01/08 02:45:20;;;;;;;53.75;41.08;;;12.50;91.90;;;;;;6308024;22;20348;-80
2023/01/08 02:47:57;;;;;;;52.47;41.47;;;12.50;91.90;;;;;;6280809;22;20047;-80
2023/01/08 02:50:28;;;;;;;52.40;41.22;;;12.50;91.90;;;;;;6309681;22;20420;-81
2023/01/08 02:53:16;;;;;;;55.17;43.17;;;12.50;91.90;;;;;;6280000;22;20065;-81
2023/01/08 02:55:47;;;;;;;54.92;41.83;;;12.50;92.00;;;;;;6308005;22;20014;-81
2023/01/08 02:58:14;;;;;;;56.65;43.63;;;12.40;92.00;;;;;;6280916;22;20026;-81
2023/01/08 03:00:42;;;;;;;53.13;43.17;;;12.40;92.10;;;;;;6308011;22;20007;-81
2023/01/08 03:03:29;;;;;;;56.03;41.88;;;12.30;92.10;;;;;;6279536;22;20007;-81
2023/01/08 03:05:58;;;;;;;54.42;42.97;;;12.30;92.10;;;;;;6306929;22;20011;-80
2023/01/08 03:08:25;;;;;;;54.40;43.38;;;12.30;92.20;;;;;;6279519;22;20312;-81
2023/01/08 03:11:16;;;;;;;56.13;43.10;;;12.30;92.20;;;;;;6306824;22;20003;-81
2023/01/08 03:13:53;;;;;;;58.05;42.03;;;12.30;92.30;;;;;;6279195;22;20007;-81
2023/01/08 03:16:32;;;;;;;53.80;42.95;;;12.40;92.20;;;;;;6306777;22;20014;-80
2023/01/08 03:19:08;;;;;;;50.90;41.30;;;12.30;92.30;;;;;;6306767;22;20064;-81
2023/01/08 03:21:36;;;;;;;51.08;41.83;;;12.40;92.10;;;;;;6307139;22;20035;-81
2023/01/08 03:24:03;;;;;;;54.85;42.33;;;12.40;92.20;;;;;;6308721;22;20003;-79
2023/01/08 03:26:31;;;;;;;53.70;43.05;;;12.40;92.20;;;;;;6307239;22;20007;-81
2023/01/08 03:28:58;;;;;;;50.42;41.58;;;12.40;92.10;;;;;;6279235;22;20015;-81
2023/01/08 03:31:26;;;;;;;53.20;41.78;;;12.40;92.10;;;;;;6279542;22;20072;-82
2023/01/08 03:33:53;;;;;;;53.08;42.78;;;12.40;92.20;;;;;;6280608;22;20015;-81
2023/01/08 03:36:24;;;;;;;53.40;42.13;;;12.50;92.00;;;;;;6281576;22;20514;-81
2023/01/08 03:39:11;;;;;;;53.08;42.65;;;12.40;92.10;;;;;;6281369;22;20003;-81
2023/01/08 03:41:37;;;;;;;53.47;41.50;;;12.40;92.10;;;;;;6281359;22;20010;-80
2023/01/08 03:44:03;;;;;;;54.15;41.25;;;12.40;92.10;;;;;;6281553;22;20079;-81
2023/01/08 03:46:33;;;;;;;55.28;43.10;;;12.40;92.30;;;;;;6281185;22;20094;-82
2023/01/08 03:49:00;;;;;;;53.95;42.28;;;12.30;92.20;;;;;;6308512;22;19992;-81
2023/01/08 03:51:26;;;;;;;53.20;43.15;;;12.40;92.20;;;;;;6308777;22;20507;-82
2023/01/08 03:53:55;;;;;;;57.55;44.05;;;12.40;92.20;;;;;;6308383;22;19999;-81
2023/01/08 03:56:21;;;;;;;48.38;39.60;;;12.30;92.30;;;;;;6281442;22;20014;-82
2023/01/08 03:58:47;;;;;;;52.53;42.92;;;12.40;92.30;;;;;;6308806;22;20025;-81
2023/01/08 04:01:12;;;;;;;51.60;43.55;;;12.40;92.20;;;;;;6308740;22;20052;-81
2023/01/08 04:03:38;;;;;;;51.70;40.67;;;12.30;92.10;;;;;;6281494;22;20007;-81
2023/01/08 04:06:04;;;;;;;53.70;40.88;;;12.30;92.30;;;;;;6280717;22;20011;-81
2023/01/08 04:08:30;;;;;;;50.83;41.22;;;12.40;92.30;;;;;;6308814;22;20007;-81
2023/01/08 04:10:55;;;;;;;48.75;41.13;;;12.30;92.20;;;;;;6308663;22;20007;-81
2023/01/08 04:13:21;;;;;;;51.90;40.05;;;12.30;92.30;;;;;;6281197;22;20008;-81
2023/01/08 04:15:48;;;;;;;52.30;40.75;;;12.30;92.20;;;;;;6308490;22;20000;-80
2023/01/08 04:18:15;;;;;;;50.80;40.25;;;12.30;92.30;;;;;;6306662;22;20012;-80
2023/01/08 04:20:45;;;;;;;53.50;39.92;;;12.30;92.30;;;;;;6308463;22;19995;-82
2023/01/08 04:23:11;;;;;;;47.85;40.05;;;12.30;92.20;;;;;;6281246;22;20324;-80
2023/01/08 04:25:37;;;;;;;47.25;39.40;;;12.40;92.10;;;;;;6308412;22;20007;-81
2023/01/08 04:28:03;;;;;;;48.92;40.33;;;12.30;92.00;;;;;;6308681;22;20427;-81
2023/01/08 04:30:29;;;;;;;51.70;40.15;;;12.30;92.00;;;;;;6308852;22;20003;-82
